createdAt,value
2018-08-18T00:01:15.110Z,68.10
2018-08-18T00:03:42.811Z,68.40
2018-08-18T00:06:10.428Z,68.30
2018-08-18T00:08:38.114Z,68.70
2018-08-18T00:11:05.625Z,68.70
2018-08-18T00:13:49.146Z,69.20
2018-08-18T00:16:21.228Z,69.10
2018-08-18T00:18:48.812Z,69.10
2018-08-18T00:21:16.567Z,69.10
2018-08-18T00:23:54.434Z,69.30
2018-08-18T00:26:22.612Z,69.10
2018-08-18T00:28:50.552Z,69.40
2018-08-18T00:31:18.160Z,69.50
2018-08-18T00:33:45.881Z,69.40
2018-08-18T00:36:13.478Z,69.90
2018-08-18T00:38:41.096Z,70.20
2018-08-18T00:41:08.658Z,70.30
2018-08-18T00:43:36.163Z,70.60
2018-08-18T00:46:04.027Z,70.80
2018-08-18T00:48:31.657Z,71.20
2018-08-18T00:50:59.380Z,71.60
2018-08-18T00:53:27.007Z,71.60
2018-08-18T00:55:54.550Z,72.20
2018-08-18T00:58:26.695Z,72.30
2018-08-18T01:01:00.411Z,72.20
2018-08-18T01:03:28.221Z,72.20
2018-08-18T01:06:00.679Z,72.20
2018-08-18T01:08:28.514Z,72.20
2018-08-18T01:10:56.197Z,72.60
2018-08-18T01:13:23.664Z,72.80
2018-08-18T01:15:51.194Z,73.00
2018-08-18T01:18:19.291Z,73.10
2018-08-18T01:20:46.956Z,73.20
2018-08-18T01:23:14.506Z,73.20
2018-08-18T01:25:42.133Z,73.40
2018-08-18T01:28:09.645Z,74.30
2018-08-18T01:30:37.201Z,73.90
2018-08-18T01:33:04.817Z,74.00
2018-08-18T01:35:32.355Z,74.20
2018-08-18T01:38:00.108Z,74.40
2018-08-18T01:40:27.593Z,74.40
2018-08-18T01:42:55.082Z,74.80
2018-08-18T01:45:23.103Z,75.40
2018-08-18T01:47:50.713Z,75.50
2018-08-18T01:50:18.719Z,75.40
2018-08-18T01:52:46.286Z,75.40
2018-08-18T01:55:14.389Z,75.60
2018-08-18T01:57:41.973Z,75.70
2018-08-18T02:00:24.710Z,75.80
2018-08-18T02:02:52.345Z,77.00
2018-08-18T02:05:19.960Z,77.00
2018-08-18T02:07:47.485Z,77.10
2018-08-18T02:10:15.028Z,78.20
2018-08-18T02:12:54.117Z,78.90
2018-08-18T02:15:21.567Z,79.50
2018-08-18T02:17:49.102Z,79.70
2018-08-18T02:20:16.679Z,80.40
2018-08-18T02:22:44.384Z,81.60
2018-08-18T02:25:11.899Z,82.50
2018-08-18T02:27:39.424Z,83.10
2018-08-18T02:30:22.776Z,84.10
2018-08-18T02:32:50.428Z,84.60
2018-08-18T02:35:18.044Z,84.60
2018-08-18T02:37:45.613Z,84.60
2018-08-18T02:40:15.028Z,85.60
2018-08-18T02:42:42.604Z,85.50
2018-08-18T02:45:10.481Z,84.70
2018-08-18T02:47:38.028Z,84.90
2018-08-18T02:50:07.104Z,84.30
2018-08-18T02:52:35.244Z,84.50
2018-08-18T02:55:04.168Z,84.50
2018-08-18T02:57:35.106Z,84.80
2018-08-18T03:00:03.976Z,84.90
2018-08-18T03:02:31.591Z,84.60
2018-08-18T03:04:59.233Z,84.80
2018-08-18T03:07:31.316Z,84.70
2018-08-18T03:09:58.909Z,84.70
2018-08-18T03:12:32.215Z,84.80
2018-08-18T03:14:59.740Z,84.90
2018-08-18T03:17:27.609Z,85.00
2018-08-18T03:19:55.205Z,85.10
2018-08-18T03:22:27.410Z,84.90
2018-08-18T03:24:55.011Z,84.80
2018-08-18T03:27:22.523Z,85.40
2018-08-18T03:29:51.916Z,86.50
2018-08-18T03:32:20.844Z,86.10
2018-08-18T03:34:48.363Z,87.20
2018-08-18T03:37:26.938Z,86.20
2018-08-18T03:39:54.848Z,86.30
2018-08-18T03:42:29.572Z,86.20
2018-08-18T03:44:57.094Z,86.40
2018-08-18T03:47:24.696Z,86.20
2018-08-18T03:49:52.284Z,87.40
2018-08-18T03:52:19.851Z,87.60
2018-08-18T03:54:47.363Z,87.60
2018-08-18T03:57:14.929Z,87.90
2018-08-18T03:59:42.481Z,88.10
2018-08-18T04:02:10.058Z,88.60
2018-08-18T04:04:37.675Z,89.90
2018-08-18T04:07:06.444Z,90.30
2018-08-18T04:09:35.478Z,90.80
2018-08-18T04:12:04.241Z,91.10
2018-08-18T04:14:40.825Z,91.00
2018-08-18T04:17:39.377Z,91.30
2018-08-18T04:20:07.006Z,92.00
2018-08-18T04:22:34.904Z,92.00
2018-08-18T04:25:02.523Z,91.50
2018-08-18T04:27:45.236Z,91.50
2018-08-18T04:30:15.204Z,91.40
2018-08-18T04:32:52.446Z,91.60
2018-08-18T04:35:21.469Z,91.70
2018-08-18T04:37:49.857Z,91.50
2018-08-18T04:40:17.464Z,91.30
2018-08-18T04:42:45.293Z,90.90
2018-08-18T04:45:14.605Z,90.30
2018-08-18T04:47:42.173Z,90.30
2018-08-18T04:50:09.752Z,90.00
2018-08-18T04:52:37.899Z,88.50
2018-08-18T04:55:05.499Z,88.90
2018-08-18T04:57:33.130Z,89.10
2018-08-18T05:00:00.719Z,88.40
2018-08-18T05:02:28.286Z,88.20
2018-08-18T05:04:55.841Z,88.30
2018-08-18T05:07:23.416Z,88.60
2018-08-18T05:09:51.028Z,88.00
2018-08-18T05:12:18.677Z,87.30
2018-08-18T05:14:46.291Z,87.00
2018-08-18T05:17:13.828Z,86.70
2018-08-18T05:19:41.551Z,87.30
2018-08-18T05:22:09.112Z,88.00
2018-08-18T05:24:36.773Z,87.70
2018-08-18T05:27:15.857Z,86.50
2018-08-18T05:29:43.429Z,85.10
2018-08-18T05:32:10.988Z,84.60
2018-08-18T05:34:39.120Z,85.80
2018-08-18T05:37:06.803Z,86.20
2018-08-18T05:39:34.320Z,86.50
2018-08-18T05:42:01.976Z,86.50
2018-08-18T05:44:29.719Z,85.90
2018-08-18T05:46:57.243Z,86.00
2018-08-18T05:49:24.773Z,85.60
2018-08-18T05:51:53.404Z,85.40
2018-08-18T05:54:26.471Z,84.80
2018-08-18T05:56:54.143Z,83.60
2018-08-18T05:59:21.991Z,84.00
2018-08-18T06:01:49.716Z,84.00
2018-08-18T06:04:18.556Z,83.10
2018-08-18T06:06:46.838Z,82.30
2018-08-18T06:09:15.724Z,81.90
2018-08-18T06:11:43.884Z,80.60
2018-08-18T06:14:12.338Z,80.60
2018-08-18T06:16:40.462Z,79.60
2018-08-18T06:19:08.111Z,79.60
2018-08-18T06:21:35.766Z,79.60
2018-08-18T06:24:03.492Z,75.90
2018-08-18T06:26:31.147Z,71.70
2018-08-18T06:28:58.788Z,67.00
2018-08-18T06:31:26.612Z,63.20
2018-08-18T06:33:54.164Z,61.50
2018-08-18T06:36:21.845Z,60.70
2018-08-18T06:38:49.480Z,59.30
2018-08-18T06:41:17.258Z,58.40
2018-08-18T06:43:45.184Z,56.20
2018-08-18T06:46:12.830Z,55.40
2018-08-18T06:48:40.509Z,54.00
2018-08-18T06:51:08.156Z,53.80
2018-08-18T06:53:41.476Z,53.70
2018-08-18T06:56:09.167Z,56.90
2018-08-18T06:58:36.870Z,58.70
2018-08-18T07:01:05.107Z,60.90
2018-08-18T07:03:36.600Z,63.50
2018-08-18T07:06:05.379Z,65.20
2018-08-18T07:08:38.096Z,66.00
2018-08-18T07:11:06.036Z,67.20
2018-08-18T07:13:33.712Z,68.80
2018-08-18T07:16:01.385Z,69.20
2018-08-18T07:18:29.048Z,69.20
2018-08-18T07:20:56.635Z,69.80
2018-08-18T07:23:24.344Z,70.30
2018-08-18T07:25:57.123Z,68.20
2018-08-18T07:28:24.894Z,67.40
2018-08-18T07:30:52.711Z,68.60
2018-08-18T07:33:20.516Z,66.20
2018-08-18T07:35:48.487Z,65.50
2018-08-18T07:38:16.047Z,63.80
2018-08-18T07:40:44.373Z,63.10
2018-08-18T07:43:15.246Z,61.30
2018-08-18T07:45:43.379Z,61.90
2018-08-18T07:48:11.877Z,62.60
2018-08-18T07:50:39.423Z,62.70
2018-08-18T07:53:07.652Z,60.90
2018-08-18T07:55:35.264Z,58.60
2018-08-18T07:58:04.561Z,58.60
2018-08-18T08:00:34.797Z,58.70
2018-08-18T08:03:02.678Z,58.50
2018-08-18T08:05:30.993Z,58.30
2018-08-18T08:07:58.700Z,61.50
2018-08-18T08:10:26.475Z,60.00
2018-08-18T08:12:55.273Z,58.90
2018-08-18T08:15:22.932Z,56.70
2018-08-18T08:17:50.580Z,58.60
2018-08-18T08:20:18.559Z,58.50
2018-08-18T08:22:47.255Z,58.60
2018-08-18T08:25:15.333Z,57.60
2018-08-18T08:27:45.468Z,58.80
2018-08-18T08:30:13.192Z,57.50
2018-08-18T08:32:40.840Z,56.50
2018-08-18T08:35:09.607Z,56.80
2018-08-18T08:37:37.201Z,58.80
2018-08-18T08:40:08.023Z,57.50
2018-08-18T08:42:36.117Z,57.50
2018-08-18T08:45:04.523Z,54.50
2018-08-18T08:47:32.337Z,56.00
2018-08-18T08:50:00.013Z,56.10
2018-08-18T08:52:32.336Z,57.00
2018-08-18T08:55:00.089Z,56.30
2018-08-18T08:57:27.964Z,55.70
2018-08-18T08:59:55.700Z,54.50
2018-08-18T09:02:23.944Z,53.90
2018-08-18T09:04:51.576Z,53.30
2018-08-18T09:07:19.426Z,55.10
2018-08-18T09:09:47.089Z,53.30
2018-08-18T09:12:15.520Z,53.60
2018-08-18T09:14:43.178Z,53.40
2018-08-18T09:17:10.859Z,53.40
2018-08-18T09:19:38.725Z,52.50
2018-08-18T09:22:06.469Z,52.80
2018-08-18T09:24:34.538Z,51.50
2018-08-18T09:27:04.561Z,51.40
2018-08-18T09:29:37.368Z,51.20
2018-08-18T09:32:05.178Z,51.20
2018-08-18T09:34:39.436Z,51.20
2018-08-18T09:37:07.164Z,49.40
2018-08-18T09:39:34.921Z,49.40
2018-08-18T09:42:06.005Z,49.40
2018-08-18T09:44:35.208Z,49.80
2018-08-18T09:47:03.449Z,50.20
2018-08-18T09:49:31.672Z,49.70
2018-08-18T09:52:00.683Z,51.40
2018-08-18T09:54:28.625Z,51.00
2018-08-18T09:56:57.953Z,51.80
2018-08-18T09:59:26.836Z,50.90
2018-08-18T10:01:54.844Z,50.30
2018-08-18T10:04:23.008Z,50.60
2018-08-18T10:06:51.416Z,50.00
2018-08-18T10:09:19.646Z,49.40
2018-08-18T10:11:47.405Z,48.90
2018-08-18T10:14:15.138Z,50.20
2018-08-18T10:16:43.310Z,49.60
2018-08-18T10:19:11.244Z,50.60
2018-08-18T10:21:38.945Z,51.40
2018-08-18T10:24:06.979Z,50.80
2018-08-18T10:26:34.623Z,49.20
2018-08-18T10:29:13.617Z,48.70
2018-08-18T10:31:46.745Z,47.80
2018-08-18T10:34:15.046Z,48.80
2018-08-18T10:36:45.957Z,48.00
2018-08-18T10:39:13.728Z,48.00
2018-08-18T10:41:53.171Z,46.40
2018-08-18T10:44:21.660Z,45.60
2018-08-18T10:47:00.067Z,45.10
2018-08-18T10:49:39.379Z,44.40
2018-08-18T10:52:18.744Z,45.30
2018-08-18T10:54:46.864Z,45.50
2018-08-18T10:57:25.907Z,44.60
2018-08-18T10:59:53.614Z,44.10
2018-08-18T11:02:31.082Z,45.40
2018-08-18T11:04:59.014Z,46.50
2018-08-18T11:07:27.945Z,46.90
2018-08-18T11:09:55.837Z,46.80
2018-08-18T11:12:23.995Z,45.90
2018-08-18T11:14:56.375Z,45.90
2018-08-18T11:17:25.159Z,45.30
2018-08-18T11:19:54.568Z,44.80
2018-08-18T11:23:31.161Z,44.20
2018-08-18T11:26:00.011Z,43.60
2018-08-18T11:28:27.704Z,44.80
2018-08-18T11:30:55.620Z,44.00
2018-08-18T11:33:37.855Z,43.20
2018-08-18T11:36:06.958Z,43.60
2018-08-18T11:38:35.440Z,42.10
2018-08-18T11:41:03.378Z,42.00
2018-08-18T11:43:38.068Z,42.20
2018-08-18T11:46:06.428Z,42.30
2018-08-18T11:48:35.850Z,40.60
2018-08-18T11:51:03.620Z,40.70
2018-08-18T11:53:31.252Z,41.00
2018-08-18T11:55:59.006Z,41.40
2018-08-18T11:58:27.080Z,41.20
2018-08-18T12:00:58.140Z,42.20
2018-08-18T12:03:29.077Z,42.60
2018-08-18T12:05:59.264Z,43.60
2018-08-18T12:08:32.886Z,41.60
2018-08-18T12:11:03.205Z,41.80
2018-08-18T12:13:36.822Z,41.90
2018-08-18T12:16:13.391Z,42.10
2018-08-18T12:18:42.760Z,40.60
2018-08-18T12:21:10.990Z,39.80
2018-08-18T12:23:41.097Z,40.70
2018-08-18T12:26:11.640Z,40.60
2018-08-18T12:28:43.494Z,40.60
2018-08-18T12:31:14.233Z,41.20
2018-08-18T12:33:42.078Z,40.70
2018-08-18T12:36:10.699Z,40.20
2018-08-18T12:38:42.106Z,38.70
2018-08-18T12:41:10.353Z,38.40
2018-08-18T12:43:40.929Z,37.60
2018-08-18T12:46:11.009Z,39.30
2018-08-18T12:48:42.801Z,39.00
2018-08-18T12:51:12.695Z,38.30
2018-08-18T12:53:51.069Z,37.90
2018-08-18T12:56:20.956Z,38.40
2018-08-18T12:58:48.797Z,38.00
2018-08-18T13:01:33.544Z,37.90
2018-08-18T13:04:01.584Z,37.60
2018-08-18T13:06:33.831Z,38.40
2018-08-18T13:09:02.280Z,37.70
2018-08-18T13:11:30.095Z,37.10
2018-08-18T13:14:02.414Z,38.10
2018-08-18T13:16:30.281Z,37.90
2018-08-18T13:18:58.055Z,37.20
2018-08-18T13:21:25.795Z,36.70
2018-08-18T13:23:53.641Z,36.80
2018-08-18T13:26:21.284Z,34.60
2018-08-18T13:28:52.335Z,34.20
2018-08-18T13:31:23.122Z,34.70
2018-08-18T13:33:51.168Z,34.60
2018-08-18T13:36:19.777Z,33.90
2018-08-18T13:38:47.667Z,33.90
2018-08-18T13:41:15.890Z,34.10
2018-08-18T13:43:45.270Z,33.40
2018-08-18T13:46:14.755Z,33.10
2018-08-18T13:48:49.195Z,32.90
2018-08-18T13:51:17.309Z,33.00
2018-08-18T13:53:50.793Z,34.20
2018-08-18T13:56:19.329Z,34.90
2018-08-18T13:58:49.446Z,35.70
2018-08-18T14:01:33.868Z,36.50
2018-08-18T14:04:01.812Z,35.60
2018-08-18T14:06:31.732Z,36.70
2018-08-18T14:09:00.991Z,35.50
2018-08-18T14:11:29.547Z,35.50
2018-08-18T14:13:59.681Z,36.50
2018-08-18T14:16:28.817Z,35.90
2018-08-18T14:19:01.914Z,35.30
2018-08-18T14:21:30.611Z,34.90
2018-08-18T14:23:58.773Z,35.10
2018-08-18T14:26:26.966Z,34.60
2018-08-18T14:28:54.912Z,34.50
2018-08-18T14:31:23.098Z,33.10
2018-08-18T14:33:51.046Z,33.30
2018-08-18T14:36:19.381Z,32.80
2018-08-18T14:38:47.405Z,32.50
2018-08-18T14:41:20.843Z,32.70
2018-08-18T14:43:48.528Z,32.10
2018-08-18T14:46:16.499Z,32.40
2018-08-18T14:48:44.156Z,32.30
2018-08-18T14:51:12.875Z,30.80
2018-08-18T14:53:41.368Z,31.70
2018-08-18T14:56:09.943Z,30.40
2018-08-18T14:58:40.007Z,31.90
2018-08-18T15:01:13.104Z,31.90
2018-08-18T15:03:42.030Z,31.30
2018-08-18T15:06:17.358Z,30.40
2018-08-18T15:08:46.194Z,30.80
2018-08-18T15:11:15.163Z,30.70
2018-08-18T15:13:47.271Z,30.90
2018-08-18T15:16:15.887Z,30.60
2018-08-18T15:18:43.782Z,32.00
2018-08-18T15:21:11.577Z,31.20
2018-08-18T15:23:39.478Z,31.30
2018-08-18T15:26:07.399Z,31.80
2018-08-18T15:28:35.031Z,30.50
2018-08-18T15:31:03.531Z,30.40
2018-08-18T15:33:31.626Z,30.70
2018-08-18T15:35:59.272Z,30.50
2018-08-18T15:38:45.712Z,30.70
2018-08-18T15:41:13.410Z,29.90
2018-08-18T15:43:46.310Z,30.00
2018-08-18T15:46:14.385Z,30.30
2018-08-18T15:48:42.204Z,30.70
2018-08-18T15:51:10.068Z,31.20
2018-08-18T15:53:56.329Z,32.00
2018-08-18T15:56:24.884Z,30.90
2018-08-18T15:58:53.401Z,31.60
2018-08-18T16:01:23.396Z,30.90
2018-08-18T16:03:51.945Z,29.60
2018-08-18T16:06:19.731Z,31.00
2018-08-18T16:08:47.391Z,30.70
2018-08-18T16:11:15.661Z,29.70
2018-08-18T16:13:43.576Z,30.00
2018-08-18T16:16:12.078Z,30.30
2018-08-18T16:18:39.988Z,30.60
2018-08-18T16:21:14.065Z,31.50
2018-08-18T16:23:42.967Z,30.40
2018-08-18T16:26:12.286Z,31.80
2018-08-18T16:28:44.869Z,30.20
2018-08-18T16:31:13.380Z,30.90
2018-08-18T16:33:41.574Z,30.20
2018-08-18T16:36:09.591Z,29.90
2018-08-18T16:38:37.374Z,29.60
2018-08-18T16:41:05.054Z,30.60
2018-08-18T16:43:34.501Z,29.70
2018-08-18T16:46:18.950Z,29.90
2018-08-18T16:48:47.085Z,29.90
2018-08-18T16:51:14.705Z,29.90
2018-08-18T16:53:42.998Z,30.60
2018-08-18T16:56:24.148Z,30.00
2018-08-18T16:58:55.149Z,30.20
2018-08-18T17:01:23.220Z,30.30
2018-08-18T17:03:52.089Z,31.70
2018-08-18T17:06:19.702Z,33.10
2018-08-18T17:08:47.451Z,33.20
2018-08-18T17:11:15.600Z,32.20
2018-08-18T17:13:43.446Z,32.40
2018-08-18T17:16:11.158Z,32.60
2018-08-18T17:18:38.926Z,32.80
2018-08-18T17:21:07.272Z,31.70
2018-08-18T17:23:36.972Z,32.90
2018-08-18T17:26:04.759Z,32.10
2018-08-18T17:28:33.128Z,31.40
2018-08-18T17:31:01.018Z,31.80
2018-08-18T17:33:28.949Z,31.30
2018-08-18T17:35:56.629Z,31.40
2018-08-18T17:38:24.239Z,31.30
2018-08-18T17:40:51.922Z,31.30
2018-08-18T17:43:20.353Z,31.50
2018-08-18T17:45:53.693Z,31.40
2018-08-18T17:48:22.907Z,31.30
2018-08-18T17:50:51.549Z,32.10
2018-08-18T17:53:19.399Z,31.50
2018-08-18T17:55:52.735Z,31.50
2018-08-18T17:58:20.403Z,31.20
2018-08-18T18:00:48.052Z,31.50
2018-08-18T18:03:15.964Z,32.20
2018-08-18T18:05:43.861Z,32.30
2018-08-18T18:08:11.551Z,32.50
2018-08-18T18:10:39.472Z,33.40
2018-08-18T18:13:14.410Z,34.00
2018-08-18T18:15:42.608Z,34.30
2018-08-18T18:18:11.982Z,34.30
2018-08-18T18:20:41.252Z,35.10
2018-08-18T18:23:10.798Z,35.50
2018-08-18T18:25:38.574Z,35.30
2018-08-18T18:28:06.246Z,35.60
2018-08-18T18:30:33.872Z,35.90
2018-08-18T18:33:01.548Z,36.00
2018-08-18T18:35:29.141Z,36.00
2018-08-18T18:38:00.918Z,35.90
2018-08-18T18:40:33.348Z,37.10
2018-08-18T18:43:00.881Z,37.70
2018-08-18T18:45:28.577Z,38.40
2018-08-18T18:47:56.240Z,39.20
2018-08-18T18:50:24.009Z,40.00
2018-08-18T18:52:51.891Z,40.70
2018-08-18T18:55:19.664Z,40.30
2018-08-18T18:58:04.127Z,40.30
2018-08-18T19:00:33.526Z,40.70
2018-08-18T19:03:01.493Z,42.70
2018-08-18T19:05:30.275Z,43.60
2018-08-18T19:08:10.500Z,43.80
2018-08-18T19:10:38.108Z,44.40
2018-08-18T19:13:06.179Z,44.10
2018-08-18T19:15:33.893Z,45.00
2018-08-18T19:18:01.557Z,44.90
2018-08-18T19:20:29.929Z,46.40
2018-08-18T19:23:11.063Z,44.00
2018-08-18T19:25:40.126Z,43.50
2018-08-18T19:28:15.848Z,43.90
2018-08-18T19:30:43.513Z,43.90
2018-08-18T19:33:12.304Z,43.70
2018-08-18T19:35:41.009Z,43.90
2018-08-18T19:38:08.703Z,45.30
2018-08-18T19:40:37.495Z,45.20
2018-08-18T19:43:07.968Z,46.40
2018-08-18T19:45:35.525Z,45.00
2018-08-18T19:48:03.404Z,45.80
2018-08-18T19:50:30.914Z,46.30
2018-08-18T19:53:04.147Z,46.80
2018-08-18T19:55:31.811Z,47.50
2018-08-18T19:57:59.347Z,50.00
2018-08-18T20:00:26.953Z,48.40
2018-08-18T20:03:05.929Z,49.30
2018-08-18T20:05:33.901Z,50.30
2018-08-18T20:08:01.485Z,50.20
2018-08-18T20:10:29.765Z,50.10
2018-08-18T20:12:57.401Z,49.80
2018-08-18T20:15:24.978Z,50.50
2018-08-18T20:17:52.509Z,51.00
2018-08-18T20:20:21.975Z,51.00
2018-08-18T20:22:49.696Z,50.90
2018-08-18T20:25:17.296Z,51.80
2018-08-18T20:27:45.091Z,52.60
2018-08-18T20:30:13.782Z,52.10
2018-08-18T20:32:41.384Z,53.10
2018-08-18T20:35:09.244Z,53.10
2018-08-18T20:37:36.981Z,53.40
2018-08-18T20:40:05.756Z,53.40
2018-08-18T20:42:38.969Z,54.10
2018-08-18T20:45:07.193Z,54.10
2018-08-18T20:47:41.563Z,54.10
2018-08-18T20:50:10.041Z,54.80
2018-08-18T20:52:37.977Z,55.00
2018-08-18T20:55:06.258Z,55.10
2018-08-18T20:57:34.190Z,54.40
2018-08-18T21:00:02.015Z,54.40
2018-08-18T21:02:29.729Z,54.10
2018-08-18T21:04:58.881Z,53.00
2018-08-18T21:07:27.864Z,52.60
2018-08-18T21:09:55.962Z,52.50
2018-08-18T21:12:30.621Z,53.10
2018-08-18T21:15:00.845Z,54.30
2018-08-18T21:17:29.301Z,54.50
2018-08-18T21:19:57.089Z,54.10
2018-08-18T21:22:28.814Z,54.50
2018-08-18T21:24:56.618Z,53.80
2018-08-18T21:27:24.452Z,53.20
2018-08-18T21:29:53.148Z,54.10
2018-08-18T21:32:22.502Z,54.00
2018-08-18T21:34:51.030Z,54.30
2018-08-18T21:37:19.408Z,56.40
2018-08-18T21:39:53.205Z,55.50
2018-08-18T21:42:21.102Z,56.70
2018-08-18T21:44:52.144Z,55.10
2018-08-18T21:47:19.784Z,55.70
2018-08-18T21:49:47.636Z,55.20
2018-08-18T21:52:16.544Z,56.70
2018-08-18T21:54:44.645Z,56.70
2018-08-18T21:57:12.381Z,56.60
2018-08-18T21:59:52.782Z,56.70
2018-08-18T22:02:33.223Z,56.70
2018-08-18T22:05:01.441Z,55.90
2018-08-18T22:07:36.970Z,55.70
2018-08-18T22:10:06.409Z,55.80
2018-08-18T22:12:34.084Z,55.20
2018-08-18T22:15:06.466Z,55.80
2018-08-18T22:17:34.373Z,55.80
2018-08-18T22:20:02.917Z,56.00
2018-08-18T22:22:30.761Z,56.50
2018-08-18T22:24:58.528Z,55.80
2018-08-18T22:27:26.256Z,55.20
2018-08-18T22:29:54.618Z,55.20
2018-08-18T22:32:22.735Z,55.40
2018-08-18T22:34:51.198Z,55.80
2018-08-18T22:37:19.187Z,55.90
2018-08-18T22:39:46.921Z,56.20
2018-08-18T22:42:14.623Z,56.40
2018-08-18T22:44:42.609Z,56.70
2018-08-18T22:47:10.342Z,57.50
2018-08-18T22:49:38.208Z,58.40
2018-08-18T22:52:06.072Z,58.30
2018-08-18T22:54:33.912Z,58.30
2018-08-18T22:57:03.814Z,57.70
2018-08-18T22:59:31.954Z,58.60
2018-08-18T23:02:00.960Z,58.00
2018-08-18T23:04:35.056Z,57.80
2018-08-18T23:07:04.334Z,57.70
2018-08-18T23:09:32.927Z,59.10
2018-08-18T23:12:02.545Z,59.50
2018-08-18T23:14:36.644Z,59.90
2018-08-18T23:17:04.916Z,60.90
2018-08-18T23:19:33.404Z,60.50
2018-08-18T23:22:01.573Z,60.50
2018-08-18T23:24:32.119Z,61.20
2018-08-18T23:27:00.144Z,60.70
2018-08-18T23:29:28.341Z,60.70
2018-08-18T23:31:56.308Z,60.10
2018-08-18T23:34:24.216Z,59.90
2018-08-18T23:36:52.352Z,59.50
2018-08-18T23:39:19.958Z,60.20
2018-08-18T23:41:49.211Z,60.60
2018-08-18T23:44:17.070Z,61.10
2018-08-18T23:46:44.617Z,60.20
2018-08-18T23:49:12.320Z,59.70
2018-08-18T23:51:42.032Z,60.40
2018-08-18T23:54:15.207Z,60.10
2018-08-18T23:56:42.860Z,60.30
2018-08-18T23:59:10.584Z,60.40
